Bookmark and Share
Track history (hours):
 

Edisongracht

Last reported at 2014-Mar-04 02:15 UTC. Time now 2014-Apr-20 13:30 UTC.
Position N 50°12' W 001°48'.
Warning: this ship's position is 47 days out of date.

Length 136 m; beam 19 m; draft 9 m.

Type: Cargo ship. MMSI: 244262000.

NotesDate/timePositionNaut miles runAvg speedWind from/ knotsBaromVisibWave heightAir tempDewpointWater temp
2014-Mar-04 02:15N 50°12' W 001°48'1414.1
2014-Mar-04 01:15N 50°16' W 001°26'912.3
2014-Mar-04 00:33N 50°19' W 001°14'1010.3
2014-Mar-03 23:33N 50°21' W 000°58'8 8.5
2014-Mar-03 22:33N 50°23' W 000°45'8 8.3
2014-Mar-03 21:34N 50°25' W 000°33'1110.1
2014-Mar-03 20:29N 50°28' W 000°16'1212.4
2014-Mar-03 19:30N 50°32' E 000°02'1314.1
2014-Mar-03 18:33N 50°36' E 000°22'1414.3
2014-Mar-03 17:33N 50°42' E 000°42'1413.6
2014-Mar-03 16:32N 50°50' E 000°60'1212.2
2014-Mar-03 15:32N 50°58' E 001°15'1010.2
2014-Mar-03 14:33N 51°04' E 001°28'8 7.6
2014-Mar-03 13:33N 51°09' E 001°37'9 9.0
2014-Mar-03 12:33N 51°16' E 001°47'1111.3
2014-Mar-03 11:34N 51°25' E 001°56'104 9.3
2014-Mar-03 00:26N 52°47' E 003°41'8 9.0
2014-Mar-02 23:30N 52°53' E 003°49'9 9.0
2014-Mar-02 22:33N 52°59' E 003°59'49 9.8
2014-Mar-02 17:33N 53°33' E 004°59'1111.0
2014-Mar-02 16:32N 53°37' E 005°16'1212.6
2014-Mar-02 15:33N 53°41' E 005°36'1313.2
2014-Mar-02 14:33N 53°44' E 005°57'4012.9
2014-Mar-02 11:29N 53°55' E 007°02'1111.9
2014-Mar-02 10:32N 53°58' E 007°21'1111.3
2014-Mar-02 09:33N 53°60' E 007°39'10 9.9
2014-Mar-02 08:33N 53°53' E 007°51'1110.6
2014-Mar-02 07:33N 53°49' E 008°07'1514.7
2014-Mar-02 06:34N 53°39' E 008°25'1212.5
2014-Mar-02 05:34N 53°26' E 008°29'5 4.9
2014-Mar-02 04:31N 53°21' E 008°30'0 0.0
2014-Mar-02 03:31N 53°21' E 008°30'0 0.0
2014-Mar-02 02:31N 53°21' E 008°30'0 0.0
2014-Mar-02 01:31N 53°21' E 008°30'0 0.0
2014-Mar-02 00:33N 53°21' E 008°30'0 0.0
2014-Mar-01 23:33N 53°21' E 008°30'0 0.0
2014-Mar-01 22:33N 53°21' E 008°30'0 0.0
2014-Mar-01 21:33N 53°21' E 008°30'0 0.0
2014-Mar-01 20:34N 53°21' E 008°30'0 0.0
2014-Mar-01 19:33N 53°21' E 008°30'0 0.0
2014-Mar-01 18:33N 53°21' E 008°30'0 0.0
2014-Mar-01 17:33N 53°21' E 008°30'0 0.0
2014-Mar-01 16:33N 53°21' E 008°30'0 0.0
2014-Mar-01 15:33N 53°21' E 008°30'0 0.0
2014-Mar-01 14:33N 53°21' E 008°30'0 0.0
2014-Mar-01 13:30N 53°21' E 008°30'0 0.0
2014-Mar-01 12:33N 53°21' E 008°30'0 0.0
2014-Mar-01 11:33N 53°21' E 008°30'0 0.0
2014-Mar-01 10:33N 53°21' E 008°30'0 0.0
2014-Mar-01 09:33N 53°21' E 008°30'0 0.0
2014-Mar-01 08:33N 53°21' E 008°30'0 0.0
2014-Mar-01 07:33N 53°21' E 008°30'3 3.2
2014-Mar-01 06:33N 53°25' E 008°30'9 9.0
2014-Mar-01 05:33N 53°33' E 008°33'9 8.9
2014-Mar-01 04:33N 53°40' E 008°23'9 9.4
2014-Mar-01 03:33N 53°46' E 008°11'8 7.5
2014-Mar-01 02:33N 53°51' E 008°01'9 9.1
2014-Mar-01 01:34N 53°54' E 007°47'1 1.4
2014-Mar-01 00:33N 53°55' E 007°48'3 2.8
2014-Feb-28 23:34N 53°53' E 007°50'3 2.7
2014-Feb-28 22:32N 53°55' E 007°47'0 0.1
2014-Feb-28 21:32N 53°55' E 007°47'0 0.0
2014-Feb-28 20:32N 53°55' E 007°47'0 0.0
2014-Feb-28 19:30N 53°55' E 007°47'0 0.0
2014-Feb-28 18:32N 53°55' E 007°47'0 0.0
2014-Feb-28 17:32N 53°55' E 007°47'0 0.2
2014-Feb-28 16:32N 53°55' E 007°47'0 0.0
2014-Feb-28 15:32N 53°55' E 007°47'0 0.0
2014-Feb-28 14:29N 53°55' E 007°47'0 0.0
2014-Feb-28 13:32N 53°55' E 007°47'0 0.0
2014-Feb-28 12:32N 53°55' E 007°47'0 0.1
2014-Feb-28 11:32N 53°55' E 007°47'0 0.0
2014-Feb-28 10:29N 53°55' E 007°47'0 0.0
2014-Feb-28 09:29N 53°55' E 007°47'0 0.0
2014-Feb-28 08:32N 53°55' E 007°47'0 0.0
2014-Feb-28 07:23N 53°55' E 007°47'0 0.0
2014-Feb-28 06:32N 53°55' E 007°47'0 0.0
2014-Feb-28 05:26N 53°55' E 007°47'0 0.0
2014-Feb-28 04:32N 53°55' E 007°47'0 0.1
2014-Feb-28 03:32N 53°55' E 007°47'0 0.0
2014-Feb-28 02:32N 53°55' E 007°47'0 0.0
2014-Feb-28 01:32N 53°55' E 007°47'0 0.0
2014-Feb-28 00:26N 53°55' E 007°47'0 0.0
2014-Feb-27 23:32N 53°55' E 007°47'3 3.3
2014-Feb-27 22:32N 53°55' E 007°41'7 7.1
2014-Feb-27 21:33N 54°01' E 007°46'2211.0
2014-Feb-27 19:33N 53°59' E 008°24'1111.2
2014-Feb-27 18:34N 53°55' E 008°41'1313.4
2014-Feb-27 17:34N 53°52' E 009°03'4 3.5
2014-Feb-27 16:34N 53°54' E 009°09'1 1.4
2014-Feb-27 15:33N 53°55' E 009°10'1 1.2
2014-Feb-27 14:34N 53°55' E 009°12'8 7.7
2014-Feb-27 13:34N 54°02' E 009°18'8 7.7
2014-Feb-27 12:34N 54°09' E 009°23'8 8.0
2014-Feb-27 11:34N 54°13' E 009°35'59 3.7
2014-Feb-26 19:30N 54°36' E 011°08'1010.1
2014-Feb-26 18:34N 54°32' E 011°23'1110.5
2014-Feb-26 17:33N 54°28' E 011°40'1110.9
2014-Feb-26 16:34N 54°22' E 011°55'1010.2
2014-Feb-26 15:33N 54°13' E 012°05'4 3.6
2014-Feb-26 14:28N 54°09' E 012°06'0 0.0
2014-Feb-26 13:28N 54°09' E 012°06'0 0.0
2014-Feb-26 12:28N 54°09' E 012°06'0 0.0
2014-Feb-26 11:28N 54°09' E 012°06'0 0.0
2014-Feb-26 10:22N 54°09' E 012°06'0 0.0
2014-Feb-26 09:28N 54°09' E 012°06'0 0.0
2014-Feb-26 08:28N 54°09' E 012°06'0 0.0
2014-Feb-26 07:31N 54°09' E 012°06'0 0.0
2014-Feb-26 06:28N 54°09' E 012°06'0 0.0
2014-Feb-26 05:09N 54°09' E 012°06'0 0.0
2014-Feb-26 03:33N 54°09' E 012°06'0 0.0
2014-Feb-26 02:27N 54°09' E 012°06'0 0.0
2014-Feb-26 01:33N 54°09' E 012°06'0 0.0
2014-Feb-26 00:33N 54°09' E 012°06'0 0.0
2014-Feb-25 23:27N 54°09' E 012°06'0 0.0
2014-Feb-25 22:27N 54°09' E 012°06'0 0.0
2014-Feb-25 21:33N 54°09' E 012°06'0 0.0
2014-Feb-25 20:33N 54°09' E 012°06'0 0.0
2014-Feb-25 19:27N 54°09' E 012°06'0 0.0
2014-Feb-25 18:15N 54°09' E 012°06'0 0.0
2014-Feb-25 17:27N 54°09' E 012°06'0 0.0
2014-Feb-25 15:33N 54°09' E 012°06'0 0.0
2014-Feb-25 13:33N 54°09' E 012°06'0 0.0
2014-Feb-25 12:33N 54°09' E 012°06'0 0.0
2014-Feb-25 11:21N 54°09' E 012°06'0 0.0
2014-Feb-25 10:33N 54°09' E 012°06'0 0.0
2014-Feb-25 08:15N 54°09' E 012°06'0 0.0
2014-Feb-25 07:28N 54°09' E 012°06'0 0.0
2014-Feb-25 06:33N 54°09' E 012°06'0 0.0
2014-Feb-25 05:27N 54°09' E 012°06'0 0.0
2014-Feb-25 03:21N 54°09' E 012°06'0 0.0
2014-Feb-25 02:23N 54°09' E 012°06'0 0.0
2014-Feb-25 01:23N 54°09' E 012°06'0 0.0
2014-Feb-25 00:26N 54°09' E 012°06'0 0.0
2014-Feb-24 23:32N 54°09' E 012°06'0 0.0
2014-Feb-24 22:32N 54°09' E 012°06'0 0.0
2014-Feb-24 21:32N 54°09' E 012°06'0 0.0
2014-Feb-24 20:32N 54°09' E 012°06'0 0.0
2014-Feb-24 19:14N 54°09' E 012°06'0 0.0
2014-Feb-24 18:32N 54°09' E 012°06'0 0.0
2014-Feb-24 17:32N 54°09' E 012°06'0 0.0
2014-Feb-24 16:05N 54°09' E 012°06'0 0.0
2014-Feb-24 15:32N 54°09' E 012°06'0 0.0
2014-Feb-24 14:26N 54°09' E 012°06'0 0.0
2014-Feb-24 12:32N 54°09' E 012°06'0 0.0
2014-Feb-24 11:32N 54°09' E 012°06'0 0.0
2014-Feb-24 10:26N 54°09' E 012°06'0 0.0
2014-Feb-24 09:26N 54°09' E 012°06'0 0.0
2014-Feb-24 08:32N 54°09' E 012°06'0 0.0
2014-Feb-24 07:14N 54°09' E 012°06'0 0.0
2014-Feb-24 06:26N 54°09' E 012°06'0 0.0
2014-Feb-24 05:32N 54°09' E 012°06'0 0.0
2014-Feb-24 04:32N 54°09' E 012°06'0 0.0
2014-Feb-24 03:26N 54°09' E 012°06'0 0.0
2014-Feb-24 02:20N 54°09' E 012°06'0 0.0
2014-Feb-24 01:32N 54°09' E 012°06'0 0.0
2014-Feb-24 00:31N 54°09' E 012°06'0 0.0
2014-Feb-23 23:19N 54°09' E 012°06'0 0.0
2014-Feb-23 22:31N 54°09' E 012°06'0 0.0
2014-Feb-23 21:31N 54°09' E 012°06'0 0.0
2014-Feb-23 20:31N 54°09' E 012°06'0 0.0
2014-Feb-23 19:31N 54°09' E 012°06'0 0.0
2014-Feb-23 18:31N 54°09' E 012°06'0 0.0
2014-Feb-23 17:31N 54°09' E 012°06'0 0.0
2014-Feb-23 16:31N 54°09' E 012°06'0 0.0
2014-Feb-23 15:31N 54°09' E 012°06'0 0.0
2014-Feb-23 14:31N 54°09' E 012°06'0 0.0
2014-Feb-23 13:31N 54°09' E 012°06'0 0.0
2014-Feb-23 12:25N 54°09' E 012°06'0 0.0
2014-Feb-23 11:31N 54°09' E 012°06'0 0.0
2014-Feb-23 10:28N 54°09' E 012°06'2 1.8
2014-Feb-23 09:32N 54°11' E 012°06'9 8.7
2014-Feb-23 08:32N 54°18' E 011°57'9 9.3
2014-Feb-23 07:34N 54°25' E 011°47'10 9.9
2014-Feb-23 06:34N 54°29' E 011°32'10 9.9
2014-Feb-23 05:33N 54°34' E 011°16'61 7.4
2014-Feb-22 21:16N 54°14' E 009°36'2 3.3
2014-Feb-22 20:32N 54°12' E 009°33'25 4.2
2014-Feb-22 14:33N 53°53' E 009°05'0 0.0
2014-Feb-22 13:33N 53°53' E 009°05'0 0.2
2014-Feb-22 12:34N 53°53' E 009°05'7 6.8
2014-Feb-22 11:33N 53°50' E 008°54'10 9.8
2014-Feb-22 10:34N 53°56' E 008°40'1212.1
2014-Feb-22 09:34N 53°59' E 008°20'1010.3
2014-Feb-22 08:33N 53°59' E 008°03'9 8.9
2014-Feb-22 07:33N 53°57' E 007°48'9 8.6
2014-Feb-22 06:33N 53°55' E 007°34'9 8.5
2014-Feb-22 05:33N 53°53' E 007°20'9 8.6
2014-Feb-22 04:33N 53°50' E 007°06'19 9.1
2014-Feb-22 02:28N 53°46' E 006°34'  

Dump ship's entire track history

sailing weather and tide predictions

Edisongracht — PDUJ — position and weather